Time;durP1;ratioP1;P1;durP2;ratioP2;P2;SDS_P1;SDS_P2;PMS_P1;PMS_P2;Temp;Humidity;BMP_temperature;BMP_pressure;BME280_temperature;BME280_humidity;BME280_pressure;Samples;Min_cycle;Max_cycle;Signal;HPM_P1;HPM_P2
2022/06/30 00:00:13;;;;;;;11.20;3.97;;;;;;;20.83;50.45;101425.94;5050258;28;20036;-56
2022/06/30 00:02:40;;;;;;;12.00;3.65;;;;;;;21.17;50.33;101424.84;5046812;28;20043;-57
2022/06/30 00:05:07;;;;;;;10.32;4.18;;;;;;;21.21;49.50;101424.03;5035230;28;20039;-57
2022/06/30 00:07:34;;;;;;;19.05;3.80;;;;;;;21.01;49.83;101421.19;5056081;28;20418;-58
2022/06/30 00:10:01;;;;;;;13.93;4.40;;;;;;;21.02;50.02;101418.19;5060121;28;20354;-58
2022/06/30 00:12:27;;;;;;;16.30;4.40;;;;;;;20.92;49.99;101417.28;5060416;28;20111;-58
2022/06/30 00:14:54;;;;;;;12.73;4.50;;;;;;;20.80;50.21;101431.91;5054409;28;20021;-59
2022/06/30 00:17:20;;;;;;;12.18;3.38;;;;;;;21.02;50.68;101433.69;5053899;28;20470;-58
2022/06/30 00:19:46;;;;;;;9.88;3.65;;;;;;;21.17;49.99;101436.53;5053237;28;20068;-57
2022/06/30 00:22:14;;;;;;;10.23;4.10;;;;;;;20.91;49.71;101434.69;5054226;28;20028;-59
2022/06/30 00:24:41;;;;;;;12.55;5.03;;;;;;;20.27;50.81;101435.47;5054704;28;20029;-59
2022/06/30 00:27:11;;;;;;;14.82;4.28;;;;;;;20.04;51.97;101436.56;5036268;28;20037;-58
2022/06/30 00:29:38;;;;;;;9.80;3.85;;;;;;;20.04;52.32;101440.13;5053795;28;20560;-58
2022/06/30 00:32:05;;;;;;;13.25;4.32;;;;;;;19.98;53.42;101434.88;5055030;28;20039;-57
2022/06/30 00:34:31;;;;;;;12.30;3.92;;;;;;;20.01;53.00;101432.47;5055102;28;20052;-58
2022/06/30 00:36:58;;;;;;;11.40;3.78;;;;;;;20.05;52.55;101438.22;5054480;28;20025;-59
2022/06/30 00:39:24;;;;;;;11.05;4.18;;;;;;;20.08;52.59;101421.41;5054606;28;20025;-59
2022/06/30 00:41:50;;;;;;;13.32;3.95;;;;;;;20.08;51.88;101424.13;5052777;28;20052;-58
2022/06/30 00:44:16;;;;;;;10.40;4.30;;;;;;;19.85;52.86;101427.94;5054519;28;20029;-58
2022/06/30 00:46:43;;;;;;;14.20;4.50;;;;;;;19.60;53.18;101414.03;5039825;28;20099;-58
2022/06/30 00:49:09;;;;;;;13.02;4.18;;;;;;;19.46;54.32;101421.69;5034942;28;20071;-58
2022/06/30 00:51:36;;;;;;;13.18;4.28;;;;;;;19.51;54.15;101419.88;5052482;28;20033;-57
2022/06/30 00:54:04;;;;;;;13.15;4.50;;;;;;;19.14;55.42;101416.91;5053655;28;20025;-58
2022/06/30 00:56:33;;;;;;;13.57;4.63;;;;;;;19.05;55.92;101425.72;5052688;28;20033;-58
2022/06/30 00:59:04;;;;;;;12.77;4.22;;;;;;;18.91;55.38;101420.63;5054148;28;20056;-58
2022/06/30 01:01:32;;;;;;;19.77;5.03;;;;;;;18.76;56.64;101425.78;5053556;28;20086;-58
2022/06/30 01:04:00;;;;;;;16.17;5.07;;;;;;;18.60;57.31;101423.84;5054130;28;20384;-58
2022/06/30 01:06:27;;;;;;;13.82;4.50;;;;;;;18.54;56.91;101428.38;5053818;28;20100;-58
2022/06/30 01:08:53;;;;;;;15.00;4.20;;;;;;;18.45;57.53;101419.00;5053850;28;20036;-58
2022/06/30 01:14:21;;;;;;;18.75;5.85;;;;;;;18.23;57.96;101409.94;5051624;28;20035;-57
2022/06/30 01:16:47;;;;;;;13.90;4.28;;;;;;;18.25;58.30;101408.63;5037362;28;20037;-58
2022/06/30 01:19:17;;;;;;;14.40;4.78;;;;;;;18.00;58.83;101410.88;5033787;28;20517;-58
2022/06/30 01:22:03;;;;;;;18.30;5.55;;;;;;;18.02;58.98;101414.16;5031462;28;20029;-58
2022/06/30 01:24:30;;;;;;;11.07;4.15;;;;;;;18.15;59.04;101411.13;5033741;28;20029;-58
2022/06/30 01:26:57;;;;;;;15.35;4.85;;;;;;;18.11;58.47;101413.53;5033512;28;20021;-58
2022/06/30 01:29:24;;;;;;;17.48;5.40;;;;;;;18.35;58.06;101414.22;5050244;28;20059;-58
2022/06/30 01:31:51;;;;;;;16.17;4.43;;;;;;;18.39;57.89;101406.44;5053009;28;20116;-57
2022/06/30 01:34:17;;;;;;;20.08;4.50;;;;;;;18.26;57.87;101409.44;5053323;28;20466;-58
2022/06/30 01:36:43;;;;;;;17.15;4.93;;;;;;;18.15;58.38;101409.25;5053108;28;20029;-57
2022/06/30 01:39:09;;;;;;;17.17;4.47;;;;;;;18.21;58.31;101404.75;5051995;28;20067;-57
2022/06/30 01:41:36;;;;;;;16.15;4.32;;;;;;;18.21;57.75;101407.44;5052734;28;20374;-59
2022/06/30 01:44:02;;;;;;;14.55;4.32;;;;;;;18.19;58.15;101406.88;5052898;28;20036;-57
2022/06/30 01:46:29;;;;;;;12.27;4.05;;;;;;;18.07;58.66;101422.38;5045002;28;20032;-57
2022/06/30 01:48:55;;;;;;;16.73;5.32;;;;;;;18.16;58.30;101415.50;5051845;28;20083;-58
2022/06/30 01:51:21;;;;;;;11.73;4.00;;;;;;;18.15;58.29;101427.38;5052547;28;20461;-59
2022/06/30 01:53:50;;;;;;;16.63;3.90;;;;;;;18.17;58.32;101417.16;5052896;28;20028;-59
2022/06/30 01:56:16;;;;;;;12.52;4.10;;;;;;;18.21;58.70;101418.28;5034141;28;20049;-58
2022/06/30 01:58:43;;;;;;;15.68;4.25;;;;;;;18.38;57.36;101415.66;5052846;28;20031;-58
2022/06/30 02:01:09;;;;;;;15.48;4.28;;;;;;;18.52;57.42;101419.69;5052881;28;20477;-59
2022/06/30 02:03:35;;;;;;;13.88;4.13;;;;;;;18.59;56.56;101414.09;5045980;28;20057;-57
2022/06/30 02:06:14;;;;;;;16.23;4.57;;;;;;;18.48;56.84;101418.50;5044613;28;20032;-58
2022/06/30 02:08:40;;;;;;;15.00;3.95;;;;;;;18.67;56.39;101416.41;5052710;28;20043;-59
2022/06/30 02:11:31;;;;;;;16.10;4.15;;;;;;;18.67;56.67;101419.97;5052568;28;20386;-59
2022/06/30 02:13:59;;;;;;;11.50;4.68;;;;;;;18.67;56.45;101421.84;5052027;28;20041;-60
2022/06/30 02:16:25;;;;;;;12.45;3.70;;;;;;;18.70;56.63;101430.31;5052663;28;20028;-58
2022/06/30 02:18:52;;;;;;;21.60;4.63;;;;;;;18.73;56.59;101432.53;5052141;28;20025;-58
2022/06/30 02:21:19;;;;;;;17.23;3.90;;;;;;;18.73;55.86;101426.31;5050979;28;20033;-58
2022/06/30 02:23:45;;;;;;;11.98;4.20;;;;;;;18.76;55.95;101430.41;5052108;28;20051;-61
2022/06/30 02:26:11;;;;;;;15.00;3.50;;;;;;;18.95;55.44;101426.38;5051924;28;20033;-58
2022/06/30 02:28:38;;;;;;;14.27;4.03;;;;;;;18.92;55.40;101427.69;5050304;28;20120;-59
2022/06/30 02:31:04;;;;;;;8.70;3.70;;;;;;;19.19;54.66;101427.00;5050735;28;20039;-60
2022/06/30 02:33:30;;;;;;;10.07;4.03;;;;;;;19.31;54.23;101421.47;5038376;28;20025;-58
2022/06/30 02:35:57;;;;;;;12.77;3.55;;;;;;;19.31;53.84;101426.91;5050831;28;20580;-57
2022/06/30 02:38:23;;;;;;;9.85;3.47;;;;;;;19.22;54.13;101431.94;5050746;28;20057;-59
2022/06/30 02:40:49;;;;;;;16.38;3.88;;;;;;;19.00;54.75;101431.91;5050382;28;20441;-57
2022/06/30 02:43:15;;;;;;;12.60;3.65;;;;;;;19.13;54.54;101428.84;5050777;28;20036;-57
2022/06/30 02:45:42;;;;;;;12.25;3.30;;;;;;;18.82;55.38;101427.53;5050388;28;20021;-57
2022/06/30 02:48:08;;;;;;;16.38;3.90;;;;;;;19.08;54.61;101423.31;5051521;28;20021;-58
2022/06/30 02:50:34;;;;;;;14.82;4.32;;;;;;;18.81;54.83;101430.47;5048580;28;20487;-58
2022/06/30 02:53:00;;;;;;;10.85;3.20;;;;;;;18.71;55.01;101434.69;5050516;28;20030;-58
2022/06/30 02:55:26;;;;;;;14.13;3.30;;;;;;;18.55;55.63;101430.03;5050750;28;20031;-58
2022/06/30 02:57:52;;;;;;;12.38;3.40;;;;;;;18.58;55.26;101424.13;5051706;28;20021;-58
2022/06/30 03:00:19;;;;;;;11.82;3.30;;;;;;;18.45;56.02;101425.25;5050840;28;20500;-58
2022/06/30 03:02:46;;;;;;;21.42;4.05;;;;;;;18.32;56.48;101431.00;5050447;28;20382;-58
2022/06/30 03:05:12;;;;;;;11.52;3.35;;;;;;;18.24;56.64;101444.09;5048963;28;20043;-58
2022/06/30 03:07:38;;;;;;;15.60;4.07;;;;;;;18.14;56.90;101434.69;5050544;28;20037;-58
2022/06/30 03:10:06;;;;;;;18.65;3.70;;;;;;;18.05;57.26;101438.88;5052818;28;20017;-58
2022/06/30 03:12:32;;;;;;;11.18;3.15;;;;;;;18.01;57.02;101437.69;5050417;28;20124;-58
2022/06/30 03:14:58;;;;;;;14.15;3.63;;;;;;;17.88;57.72;101435.28;5052263;28;20126;-57
2022/06/30 03:17:25;;;;;;;12.63;3.50;;;;;;;17.68;58.34;101447.28;5050069;28;20040;-58
2022/06/30 03:19:51;;;;;;;10.93;3.65;;;;;;;17.33;59.45;101443.81;5051492;28;20052;-57
2022/06/30 03:22:17;;;;;;;11.15;3.45;;;;;;;16.99;60.48;101438.16;5048451;28;20124;-57
2022/06/30 03:24:43;;;;;;;9.27;3.60;;;;;;;16.71;61.08;101448.78;5051507;28;20416;-58
2022/06/30 03:27:10;;;;;;;15.23;4.22;;;;;;;16.25;62.57;101444.88;5051253;28;20029;-58
2022/06/30 03:29:36;;;;;;;10.88;3.38;;;;;;;16.07;63.32;101454.66;5051243;28;20025;-58
2022/06/30 03:32:02;;;;;;;14.60;4.03;;;;;;;15.94;63.84;101445.91;5050050;28;20041;-58
2022/06/30 03:34:28;;;;;;;10.95;3.60;;;;;;;15.95;63.83;101436.75;5052020;28;20420;-58
2022/06/30 03:36:54;;;;;;;8.80;3.17;;;;;;;15.80;64.29;101442.53;5051669;28;20025;-58
2022/06/30 03:39:21;;;;;;;12.25;3.63;;;;;;;15.68;64.59;101436.25;5051155;28;20063;-58
2022/06/30 03:41:47;;;;;;;13.48;3.55;;;;;;;15.54;65.21;101439.03;5050824;28;20497;-58
2022/06/30 03:44:13;;;;;;;13.15;3.70;;;;;;;15.39;65.65;101435.91;5050499;28;20025;-58
2022/06/30 03:46:39;;;;;;;13.77;3.50;;;;;;;15.30;65.89;101439.94;5050621;28;20326;-58
2022/06/30 03:49:05;;;;;;;10.75;4.10;;;;;;;15.20;66.18;101442.31;5055389;28;20040;-57
2022/06/30 03:51:32;;;;;;;12.00;3.88;;;;;;;15.17;66.67;101442.75;5054923;28;20025;-58
2022/06/30 03:53:58;;;;;;;9.13;3.63;;;;;;;15.10;66.96;101445.50;5055106;28;20021;-57
2022/06/30 03:56:25;;;;;;;12.43;4.07;;;;;;;15.03;67.21;101445.56;5055073;28;20028;-58
2022/06/30 03:58:52;;;;;;;15.05;4.32;;;;;;;15.07;67.23;101445.13;5053922;28;20032;-58
2022/06/30 04:01:19;;;;;;;12.85;4.05;;;;;;;14.95;67.69;101443.16;5054226;28;20424;-58
2022/06/30 04:03:45;;;;;;;17.75;5.00;;;;;;;14.98;67.77;101450.78;5054585;28;20025;-58
2022/06/30 04:06:12;;;;;;;11.82;4.78;;;;;;;14.95;67.96;101436.94;5054855;28;20021;-58
2022/06/30 04:08:38;;;;;;;19.17;5.45;;;;;;;14.95;67.99;101450.41;5055015;28;20052;-59
2022/06/30 04:11:04;;;;;;;11.45;4.10;;;;;;;14.86;68.56;101452.53;5054538;28;20051;-58
2022/06/30 04:13:30;;;;;;;13.05;4.78;;;;;;;14.82;68.66;101445.94;5054647;28;20040;-57
2022/06/30 04:15:56;;;;;;;13.38;4.50;;;;;;;14.82;68.73;101451.31;5054375;28;20024;-58
2022/06/30 04:18:23;;;;;;;17.05;5.75;;;;;;;14.75;69.06;101450.56;5054383;28;20040;-57
2022/06/30 04:20:49;;;;;;;19.17;4.28;;;;;;;14.75;68.93;101461.34;5054404;28;20055;-58
2022/06/30 04:23:15;;;;;;;19.50;4.65;;;;;;;14.76;68.94;101446.81;5054666;28;20020;-58
2022/06/30 04:25:41;;;;;;;14.07;5.40;;;;;;;14.74;69.36;101457.00;5054328;28;20493;-57
2022/06/30 04:28:08;;;;;;;28.42;5.78;;;;;;;14.71;69.32;101460.97;5054148;28;20057;-58
2022/06/30 04:33:18;;;;;;;17.83;4.80;;;;;;;14.61;69.73;101468.72;5054849;28;20098;-58
2022/06/30 04:35:44;;;;;;;14.70;4.50;;;;;;;14.54;69.84;101470.59;5053957;28;20037;-58
2022/06/30 04:38:11;;;;;;;16.33;4.50;;;;;;;14.52;69.86;101475.38;5052985;28;20055;-57
2022/06/30 04:43:21;;;;;;;14.43;4.65;;;;;;;14.55;70.00;101476.81;5054038;28;20035;-58
2022/06/30 04:45:47;;;;;;;14.90;4.70;;;;;;;14.47;70.50;101483.28;5032938;28;20033;-58
2022/06/30 04:48:14;;;;;;;16.35;5.00;;;;;;;14.45;70.84;101486.16;5034219;28;20057;-58
2022/06/30 04:50:40;;;;;;;18.77;4.50;;;;;;;14.42;70.85;101491.97;5033911;28;20108;-57
2022/06/30 04:53:07;;;;;;;14.52;4.10;;;;;;;14.50;70.51;101489.06;5048414;28;20125;-58
2022/06/30 04:55:34;;;;;;;12.95;4.40;;;;;;;14.49;70.22;101491.97;5054057;28;20039;-58
2022/06/30 04:58:00;;;;;;;14.10;3.90;;;;;;;14.44;70.86;101489.09;5052716;28;20496;-59
2022/06/30 05:00:26;;;;;;;15.73;4.97;;;;;;;14.39;71.11;101487.03;5053565;28;20106;-59
2022/06/30 05:02:52;;;;;;;14.77;4.15;;;;;;;14.36;70.93;101495.53;5053823;28;20473;-59
2022/06/30 05:05:19;;;;;;;19.48;4.45;;;;;;;14.49;70.72;101495.50;5052476;28;20028;-56
2022/06/30 05:07:45;;;;;;;22.17;5.18;;;;;;;14.47;70.69;101492.19;5053922;28;20032;-58
2022/06/30 05:10:11;;;;;;;17.08;4.25;;;;;;;14.43;70.31;101496.31;5052779;28;20103;-58
2022/06/30 05:12:38;;;;;;;13.93;4.88;;;;;;;14.44;70.44;101502.56;5053470;28;20054;-57
2022/06/30 05:15:05;;;;;;;16.73;4.95;;;;;;;14.47;70.43;101494.88;5053459;28;20028;-57
2022/06/30 05:17:34;;;;;;;12.98;3.95;;;;;;;14.44;70.66;101497.16;5048025;28;20033;-57
2022/06/30 05:20:00;;;;;;;13.43;3.83;;;;;;;14.45;70.12;101501.50;5033145;28;20108;-56
2022/06/30 05:22:26;;;;;;;24.85;5.55;;;;;;;14.46;70.36;101492.38;5033358;28;20192;-58
2022/06/30 05:27:38;;;;;;;14.73;4.10;;;;;;;14.52;70.10;101507.72;5051998;28;20028;-57
2022/06/30 05:30:05;;;;;;;22.00;4.90;;;;;;;14.37;70.77;101515.22;5052836;28;20037;-57
2022/06/30 05:32:31;;;;;;;15.38;4.20;;;;;;;14.25;71.06;101501.59;5052341;28;20036;-57
2022/06/30 05:34:57;;;;;;;19.25;4.97;;;;;;;14.19;72.03;101499.75;5059842;23;20420;-57
2022/06/30 05:37:24;;;;;;;16.45;5.40;;;;;;;14.15;72.11;101501.22;5052935;28;20036;-57
2022/06/30 05:39:51;;;;;;;16.00;5.03;;;;;;;14.06;72.17;101503.34;5052901;28;20024;-57
2022/06/30 05:42:17;;;;;;;15.52;4.55;;;;;;;14.09;72.29;101502.91;5052320;28;20076;-57
2022/06/30 05:44:43;;;;;;;12.52;4.15;;;;;;;14.12;72.25;101507.03;5051836;28;20055;-57
2022/06/30 05:47:09;;;;;;;14.63;5.05;;;;;;;14.09;72.60;101502.06;5053497;28;20025;-61
2022/06/30 05:49:37;;;;;;;15.10;4.95;;;;;;;13.96;72.33;101490.31;5052104;28;20037;-57
2022/06/30 05:52:04;;;;;;;14.25;4.80;;;;;;;14.03;72.47;101490.28;5051925;28;20029;-57
2022/06/30 05:54:30;;;;;;;17.17;5.93;;;;;;;13.90;72.60;101493.03;5053012;28;20389;-58
2022/06/30 05:56:56;;;;;;;21.15;4.57;;;;;;;13.91;72.95;101490.13;5051320;28;20025;-58
2022/06/30 05:59:23;;;;;;;23.45;5.05;;;;;;;13.85;73.30;101490.97;5052649;28;20025;-57
2022/06/30 06:01:49;;;;;;;19.58;5.18;;;;;;;13.84;73.23;101486.63;5050146;28;20032;-58
2022/06/30 06:04:15;;;;;;;26.02;5.22;;;;;;;13.79;73.54;101491.81;5051353;28;20103;-57
2022/06/30 06:06:41;;;;;;;21.45;5.38;;;;;;;13.81;73.35;101497.00;5032702;28;20022;-57
2022/06/30 06:09:08;;;;;;;16.85;4.65;;;;;;;13.73;73.57;101492.66;5038976;28;20095;-57
2022/06/30 06:11:34;;;;;;;16.92;4.43;;;;;;;13.69;73.48;101486.06;5052459;28;20033;-58
2022/06/30 06:14:00;;;;;;;18.60;5.55;;;;;;;13.65;73.90;101490.19;5052592;28;20068;-57
2022/06/30 06:16:27;;;;;;;19.58;5.63;;;;;;;13.76;73.83;101484.16;5051885;28;20033;-57
2022/06/30 06:18:53;;;;;;;23.38;4.90;;;;;;;13.72;73.96;101488.34;5048680;28;20083;-57
2022/06/30 06:21:19;;;;;;;26.35;4.85;;;;;;;13.63;74.00;101486.91;5038720;28;20469;-57
2022/06/30 06:23:46;;;;;;;13.75;5.35;;;;;;;13.71;73.70;101482.13;5052161;28;20016;-57
2022/06/30 06:26:12;;;;;;;15.52;4.68;;;;;;;13.73;74.05;101481.91;5051973;28;20529;-58
2022/06/30 06:31:23;;;;;;;23.73;4.85;;;;;;;13.65;74.00;101474.06;5052122;28;20037;-58
2022/06/30 06:33:49;;;;;;;24.75;4.88;;;;;;;13.71;74.39;101475.91;5052098;28;20079;-58
2022/06/30 06:36:15;;;;;;;23.23;5.68;;;;;;;13.72;74.49;101470.31;5051830;28;20533;-58
2022/06/30 06:38:42;;;;;;;18.92;4.90;;;;;;;13.63;74.48;101481.53;5052151;28;20108;-58
2022/06/30 06:41:08;;;;;;;16.35;5.28;;;;;;;13.61;74.48;101483.59;5051462;28;20107;-58
2022/06/30 06:43:35;;;;;;;21.65;6.10;;;;;;;13.61;74.52;101484.44;5052261;28;20061;-58
2022/06/30 06:46:01;;;;;;;21.58;5.38;;;;;;;13.61;74.76;101486.28;5052014;28;20056;-57
2022/06/30 06:48:28;;;;;;;21.85;6.13;;;;;;;13.62;74.84;101485.25;5052098;28;20043;-58
2022/06/30 06:50:54;;;;;;;14.65;5.15;;;;;;;13.60;75.18;101484.63;5051591;28;20025;-58
2022/06/30 06:53:21;;;;;;;17.25;5.30;;;;;;;13.55;75.23;101484.41;5051669;28;20393;-58
2022/06/30 06:55:50;;;;;;;18.58;5.05;;;;;;;13.45;74.94;101491.06;5051781;28;20056;-59
2022/06/30 06:58:16;;;;;;;18.88;4.85;;;;;;;13.52;75.14;101490.22;5041668;28;20108;-59
2022/06/30 07:00:42;;;;;;;25.60;6.45;;;;;;;13.64;74.65;101493.94;5030432;28;20064;-58
2022/06/30 07:03:08;;;;;;;14.40;4.72;;;;;;;13.60;74.56;101482.78;5031872;28;20029;-58
2022/06/30 07:05:34;;;;;;;19.08;5.20;;;;;;;13.50;74.65;101492.31;5044640;28;20029;-58
2022/06/30 07:08:01;;;;;;;20.85;5.55;;;;;;;13.47;74.81;101496.22;5051394;28;20027;-57
2022/06/30 07:10:28;;;;;;;15.85;4.30;;;;;;;13.41;75.06;101500.59;5050975;28;20477;-57
2022/06/30 07:12:55;;;;;;;18.33;5.25;;;;;;;13.44;75.31;101489.41;5051607;28;20029;-57
2022/06/30 07:15:24;;;;;;;20.23;5.25;;;;;;;13.46;75.16;101486.50;5051674;28;20028;-57
2022/06/30 07:17:50;;;;;;;17.77;4.40;;;;;;;13.47;74.72;101494.38;5050161;28;20025;-58
2022/06/30 07:20:17;;;;;;;16.65;4.88;;;;;;;13.47;74.52;101486.31;5036447;28;20025;-58
2022/06/30 07:22:43;;;;;;;18.52;5.03;;;;;;;13.42;74.73;101488.78;5041196;28;20033;-58
2022/06/30 07:25:10;;;;;;;21.25;5.30;;;;;;;13.44;74.64;101485.91;5053294;28;20084;-58
2022/06/30 07:27:36;;;;;;;24.33;4.60;;;;;;;13.40;74.56;101476.59;5055621;28;20033;-58
2022/06/30 07:30:03;;;;;;;16.20;5.32;;;;;;;13.41;74.38;101484.44;5053803;28;20028;-57
2022/06/30 07:32:29;;;;;;;20.98;4.70;;;;;;;13.40;74.58;101485.50;5054062;28;20058;-58
2022/06/30 07:34:55;;;;;;;11.32;4.00;;;;;;;13.45;74.59;101484.88;5055437;28;20025;-58
2022/06/30 07:37:21;;;;;;;20.00;5.15;;;;;;;13.47;74.70;101483.59;5054129;28;20053;-57
2022/06/30 07:39:47;;;;;;;19.75;5.15;;;;;;;13.52;74.65;101482.16;5055307;28;20029;-57
2022/06/30 07:42:14;;;;;;;19.98;4.55;;;;;;;13.55;74.45;101485.28;5054006;28;20033;-58
2022/06/30 07:44:41;;;;;;;15.63;4.63;;;;;;;13.48;74.37;101474.50;5053460;28;20033;-58
2022/06/30 07:47:07;;;;;;;14.52;4.70;;;;;;;13.47;74.34;101477.41;5054439;28;20099;-57
2022/06/30 07:49:34;;;;;;;20.85;5.07;;;;;;;13.42;74.72;101472.66;5055277;28;20025;-58
2022/06/30 07:52:00;;;;;;;20.50;4.90;;;;;;;13.42;74.57;101475.34;5053516;28;20048;-58
2022/06/30 07:54:26;;;;;;;16.17;4.40;;;;;;;13.45;74.77;101469.56;5051128;28;20040;-58
2022/06/30 07:56:52;;;;;;;16.35;4.50;;;;;;;13.35;75.49;101471.03;5055438;28;20435;-58
2022/06/30 07:59:18;;;;;;;16.27;4.63;;;;;;;13.29;75.80;101466.47;5052628;28;20025;-58
2022/06/30 08:01:45;;;;;;;15.63;4.40;;;;;;;13.27;75.87;101469.38;5054645;28;20492;-58
2022/06/30 08:04:11;;;;;;;22.17;5.53;;;;;;;13.24;76.17;101472.47;5052045;28;20041;-58
2022/06/30 08:06:38;;;;;;;13.48;4.30;;;;;;;13.23;75.82;101465.44;5034938;28;20496;-58
2022/06/30 08:09:04;;;;;;;15.70;4.40;;;;;;;13.20;76.07;101460.44;5049895;28;20063;-57
2022/06/30 08:11:30;;;;;;;26.40;5.18;;;;;;;13.28;76.00;101457.59;5053886;28;20074;-57
2022/06/30 08:13:56;;;;;;;22.88;5.22;;;;;;;13.22;76.11;101462.97;5053448;28;20025;-58
2022/06/30 08:16:23;;;;;;;15.63;5.03;;;;;;;13.20;76.08;101466.66;5048183;28;20476;-57
2022/06/30 08:18:49;;;;;;;26.40;5.13;;;;;;;13.22;75.92;101469.19;5055536;28;20365;-58
2022/06/30 08:21:18;;;;;;;19.95;5.25;;;;;;;13.26;75.31;101467.72;5053695;28;20378;-57
2022/06/30 08:23:44;;;;;;;17.15;4.75;;;;;;;13.30;75.37;101468.13;5054857;28;20033;-57
2022/06/30 08:26:10;;;;;;;14.68;4.28;;;;;;;13.29;75.68;101467.31;5053814;28;20366;-57
2022/06/30 08:28:37;;;;;;;21.85;5.28;;;;;;;13.32;76.01;101472.25;5054642;28;20504;-56
2022/06/30 08:31:03;;;;;;;17.65;4.72;;;;;;;13.30;75.53;101466.25;5052754;28;20096;-57
2022/06/30 08:33:30;;;;;;;22.10;4.90;;;;;;;13.32;75.37;101472.25;5052758;28;20029;-57
2022/06/30 08:35:57;;;;;;;21.48;4.95;;;;;;;13.37;75.27;101466.25;5054359;28;20582;-58
2022/06/30 08:38:23;;;;;;;30.85;5.05;;;;;;;13.38;75.10;101473.28;5053477;28;20037;-58
2022/06/30 08:43:34;;;;;;;18.37;4.43;;;;;;;13.26;75.69;101469.56;5053814;28;20070;-57
2022/06/30 08:46:03;;;;;;;21.17;4.97;;;;;;;13.18;76.56;101463.34;5054487;28;20393;-57
2022/06/30 08:48:30;;;;;;;20.92;4.55;;;;;;;13.21;76.21;101464.81;5052398;28;20095;-57
2022/06/30 08:51:03;;;;;;;15.48;4.38;;;;;;;13.16;75.87;101462.75;5036824;28;20065;-58
2022/06/30 08:54:00;;;;;;;17.17;5.30;;;;;;;13.17;75.97;101471.63;5031758;28;20037;-57
2022/06/30 08:56:32;;;;;;;15.57;4.78;;;;;;;13.18;76.18;101474.09;5042956;28;20040;-57
2022/06/30 08:58:59;;;;;;;26.85;5.75;;;;;;;13.14;75.60;101469.34;5047614;28;20026;-57
2022/06/30 09:01:29;;;;;;;14.68;4.45;;;;;;;13.17;75.63;101459.00;5033716;28;20459;-57
2022/06/30 09:03:58;;;;;;;20.10;4.70;;;;;;;13.13;75.87;101465.00;5047006;28;20036;-57
2022/06/30 09:06:25;;;;;;;17.88;4.50;;;;;;;13.08;75.82;101468.31;5051864;28;20030;-58
2022/06/30 09:08:51;;;;;;;11.18;4.10;;;;;;;13.05;75.78;101473.28;5041981;28;20022;-57
2022/06/30 09:11:18;;;;;;;18.58;5.57;;;;;;;13.04;76.39;101466.25;5044090;28;20118;-57
2022/06/30 09:13:48;;;;;;;20.30;4.78;;;;;;;13.03;76.81;101469.97;5053665;28;20060;-57
2022/06/30 09:16:17;;;;;;;22.95;4.75;;;;;;;13.02;76.75;101473.69;5052249;28;20029;-58
2022/06/30 09:18:44;;;;;;;15.02;4.22;;;;;;;13.00;76.48;101473.09;5053032;28;20028;-58
2022/06/30 09:21:15;;;;;;;16.63;4.28;;;;;;;13.05;76.30;101473.28;5050774;28;20067;-58
2022/06/30 09:23:46;;;;;;;16.00;4.68;;;;;;;13.00;76.48;101468.53;5051887;28;20025;-57
2022/06/30 09:26:21;;;;;;;20.88;5.30;;;;;;;12.96;76.40;101467.28;5052054;28;20021;-57
2022/06/30 09:28:54;;;;;;;17.40;4.90;;;;;;;12.98;76.32;101472.44;5053293;28;20275;-58
2022/06/30 09:31:38;;;;;;;17.80;6.10;;;;;;;12.98;76.66;101472.44;5051813;28;20033;-57
2022/06/30 09:34:21;;;;;;;20.52;5.05;;;;;;;13.04;76.72;101471.63;5052983;28;20504;-58
2022/06/30 09:36:50;;;;;;;26.38;6.18;;;;;;;13.06;76.74;101466.88;5051748;28;20061;-58
2022/06/30 09:39:18;;;;;;;25.60;5.47;;;;;;;13.03;77.03;101464.59;5053154;28;20049;-57
2022/06/30 09:41:46;;;;;;;21.63;5.38;;;;;;;12.95;77.30;101471.00;5051039;28;20460;-57
2022/06/30 09:44:25;;;;;;;23.52;5.18;;;;;;;12.89;76.45;101463.78;5051855;28;20021;-57
2022/06/30 09:47:10;;;;;;;23.08;6.20;;;;;;;12.96;76.27;101469.97;5050717;28;20104;-57
2022/06/30 09:49:42;;;;;;;20.13;4.77;;;;;;;12.89;76.28;101478.03;5052647;28;20064;-57
2022/06/30 09:52:25;;;;;;;20.83;5.30;;;;;;;12.86;76.16;101475.75;5051432;28;20111;-57
2022/06/30 09:55:00;;;;;;;22.70;5.10;;;;;;;12.81;76.27;101483.59;5052680;28;20025;-58
2022/06/30 09:57:30;;;;;;;24.52;5.55;;;;;;;12.86;76.35;101475.75;5050888;28;20029;-57
2022/06/30 10:00:06;;;;;;;24.20;5.65;;;;;;;12.81;77.01;101472.84;5052516;28;20029;-57
2022/06/30 10:02:41;;;;;;;20.55;5.55;;;;;;;12.74;77.09;101487.31;5051148;28;20143;-58
2022/06/30 10:05:09;;;;;;;23.15;5.75;;;;;;;12.69;77.14;101483.38;5052654;28;20032;-57
2022/06/30 10:07:37;;;;;;;20.85;6.15;;;;;;;12.68;76.90;101470.16;5050729;28;20033;-57
2022/06/30 10:10:06;;;;;;;19.33;5.25;;;;;;;12.65;77.39;101481.28;5052336;28;20029;-57
2022/06/30 10:12:33;;;;;;;22.48;5.07;;;;;;;12.67;77.17;101476.56;5050961;28;20029;-58
2022/06/30 10:15:00;;;;;;;19.92;5.57;;;;;;;12.76;77.17;101483.38;5052517;28;20652;-57
2022/06/30 10:17:30;;;;;;;23.50;5.47;;;;;;;12.76;76.89;101474.50;5050338;28;20504;-58
2022/06/30 10:19:58;;;;;;;24.73;5.18;;;;;;;12.80;77.04;101475.75;5051632;28;20037;-57
2022/06/30 10:22:27;;;;;;;23.20;5.32;;;;;;;12.74;77.37;101485.44;5050994;28;20028;-57
2022/06/30 10:24:55;;;;;;;15.02;5.68;;;;;;;12.74;77.46;101490.81;5052258;28;20029;-57
2022/06/30 10:27:24;;;;;;;22.27;5.95;;;;;;;12.70;77.14;101486.88;5049310;28;20477;-57
2022/06/30 10:30:12;;;;;;;20.70;5.50;;;;;;;12.71;77.25;101475.09;5051944;28;20029;-58
2022/06/30 10:33:15;;;;;;;21.05;5.20;;;;;;;12.61;77.49;101483.56;5049299;28;20036;-58
2022/06/30 10:35:42;;;;;;;28.63;6.63;;;;;;;12.63;77.11;101469.94;5032009;28;20378;-58
2022/06/30 10:38:31;;;;;;;22.13;5.32;;;;;;;12.63;77.61;101478.81;5032319;28;20073;-58
2022/06/30 10:41:07;;;;;;;17.27;5.57;;;;;;;12.64;78.23;101483.16;5045490;28;20031;-57
2022/06/30 10:43:34;;;;;;;24.13;6.20;;;;;;;12.59;78.10;101482.09;5050310;28;20108;-58
2022/06/30 10:46:05;;;;;;;18.42;5.32;;;;;;;12.57;77.91;101478.81;5051528;28;20196;-58
2022/06/30 10:48:53;;;;;;;17.92;5.63;;;;;;;12.55;78.43;101478.19;5050252;28;20033;-58
2022/06/30 10:51:20;;;;;;;23.48;6.78;;;;;;;12.60;77.89;101475.69;5051366;28;20023;-58
2022/06/30 10:53:47;;;;;;;21.75;5.32;;;;;;;12.61;77.34;101478.19;5050109;28;20082;-58
2022/06/30 10:56:14;;;;;;;17.27;5.55;;;;;;;12.56;77.58;101486.03;5048476;28;20029;-57
2022/06/30 10:59:06;;;;;;;21.63;5.55;;;;;;;12.56;77.68;101475.31;5051741;28;20044;-57
2022/06/30 11:01:32;;;;;;;16.65;5.13;;;;;;;12.54;78.29;101469.28;5049825;28;20485;-57
2022/06/30 11:03:59;;;;;;;18.08;5.53;;;;;;;12.52;77.77;101463.31;5051865;28;20017;-57
2022/06/30 11:06:56;;;;;;;15.98;5.43;;;;;;;12.53;77.94;101466.81;5049926;28;20051;-57
2022/06/30 11:09:44;;;;;;;16.50;5.10;;;;;;;12.53;77.96;101469.50;5049985;28;20160;-58
2022/06/30 11:12:12;;;;;;;19.85;5.60;;;;;;;12.57;77.53;101471.56;5049834;28;20541;-57
2022/06/30 11:14:46;;;;;;;19.00;5.28;;;;;;;12.51;77.92;101471.56;5047598;28;20067;-57
2022/06/30 11:17:17;;;;;;;17.83;5.10;;;;;;;12.57;77.47;101470.75;5051661;28;20023;-58
2022/06/30 11:19:44;;;;;;;18.60;4.82;;;;;;;12.64;77.19;101469.72;5051388;28;20074;-57
2022/06/30 11:22:15;;;;;;;20.33;5.15;;;;;;;12.61;76.95;101469.31;5050754;28;20032;-58
2022/06/30 11:24:43;;;;;;;20.92;5.47;;;;;;;12.57;77.40;101466.22;5058165;23;20045;-57
2022/06/30 11:27:23;;;;;;;22.13;5.90;;;;;;;12.53;77.79;101469.50;5050101;28;20041;-58
2022/06/30 11:29:56;;;;;;;17.88;5.88;;;;;;;12.46;78.61;101460.59;5051119;28;20079;-57
2022/06/30 11:32:23;;;;;;;23.95;5.40;;;;;;;12.41;78.49;101462.03;5051675;28;20025;-57
2022/06/30 11:34:50;;;;;;;22.00;4.68;;;;;;;12.41;78.45;101462.03;5051474;28;20389;-57
2022/06/30 11:37:25;;;;;;;20.30;5.22;;;;;;;12.35;78.81;101454.78;5051104;28;20059;-57